TimeEDT,TemperatureF,Dew PointF,Humidity,Sea Level PressureIn,VisibilityMPH,Wind Direction,Wind SpeedMPH,Gust SpeedMPH,PrecipitationIn,Events,Conditions,WindDirDegrees,DateUTC
12:55 AM,42.8,39.2,87,29.97,10.0,Calm,Calm,-,N/A,,Clear,0,2012-10-16 04:55:00
1:15 AM,42.8,41.0,93,29.98,10.0,Calm,Calm,-,N/A,,Clear,0,2012-10-16 05:15:00
1:35 AM,41.0,39.2,93,29.98,10.0,Calm,Calm,-,N/A,Rain,Light Rain,0,2012-10-16 05:35:00
1:55 AM,41.0,39.2,93,29.98,10.0,Calm,Calm,-,N/A,,Clear,0,2012-10-16 05:55:00
2:15 AM,39.2,39.2,100,29.99,10.0,Calm,Calm,-,N/A,,Clear,0,2012-10-16 06:15:00
2:35 AM,39.2,39.2,100,29.99,10.0,Calm,Calm,-,N/A,,Clear,0,2012-10-16 06:35:00
2:55 AM,39.2,39.2,100,29.99,10.0,Calm,Calm,-,N/A,,Clear,0,2012-10-16 06:55:00
3:15 AM,39.2,39.2,100,30.00,9.0,Calm,Calm,-,N/A,,Clear,0,2012-10-16 07:15:00
3:35 AM,39.2,39.2,100,29.99,9.0,Calm,Calm,-,N/A,,Clear,0,2012-10-16 07:35:00
3:55 AM,39.2,39.2,100,29.99,10.0,Calm,Calm,-,N/A,,Clear,0,2012-10-16 07:55:00
4:15 AM,39.2,39.2,100,30.00,9.0,Calm,Calm,-,N/A,,Clear,0,2012-10-16 08:15:00
4:35 AM,39.2,39.2,100,30.00,9.0,Calm,Calm,-,N/A,,Partly Cloudy,0,2012-10-16 08:35:00
4:55 AM,39.2,39.2,100,30.00,8.0,Calm,Calm,-,N/A,,Partly Cloudy,0,2012-10-16 08:55:00
5:15 AM,37.4,37.4,100,30.01,9.0,Calm,Calm,-,N/A,,Clear,0,2012-10-16 09:15:00
5:35 AM,37.4,37.4,100,30.01,7.0,Calm,Calm,-,N/A,,Clear,0,2012-10-16 09:35:00
5:55 AM,37.4,37.4,100,30.01,9.0,Calm,Calm,-,N/A,,Partly Cloudy,0,2012-10-16 09:55:00
6:15 AM,37.4,37.4,100,30.02,9.0,Calm,Calm,-,N/A,,Scattered Clouds,0,2012-10-16 10:15:00
6:35 AM,37.4,37.4,100,30.02,9.0,Calm,Calm,-,N/A,,Partly Cloudy,0,2012-10-16 10:35:00
6:55 AM,37.4,37.4,100,30.03,8.0,Calm,Calm,-,N/A,,Scattered Clouds,0,2012-10-16 10:55:00
7:15 AM,37.4,37.4,100,30.03,9.0,Calm,Calm,-,N/A,,Mostly Cloudy,0,2012-10-16 11:15:00
7:35 AM,37.4,37.4,100,30.03,9.0,Calm,Calm,-,N/A,,Partly Cloudy,0,2012-10-16 11:35:00
8:15 AM,39.2,37.4,93,30.02,4.0,Calm,Calm,-,N/A,,Clear,0,2012-10-16 12:15:00
8:35 AM,41.0,39.2,93,30.03,10.0,Calm,Calm,-,N/A,,Clear,0,2012-10-16 12:35:00
8:55 AM,42.8,39.2,87,30.03,10.0,Calm,Calm,-,N/A,,Clear,0,2012-10-16 12:55:00
9:15 AM,42.8,41.0,93,30.04,10.0,Calm,Calm,-,N/A,,Clear,0,2012-10-16 13:15:00
9:35 AM,44.6,41.0,87,30.05,10.0,Calm,Calm,-,N/A,,Clear,0,2012-10-16 13:35:00
9:55 AM,46.4,42.8,87,30.04,10.0,Calm,Calm,-,N/A,,Clear,0,2012-10-16 13:55:00
10:15 AM,48.2,44.6,87,30.03,10.0,South,4.6,-,N/A,,Clear,180,2012-10-16 14:15:00
10:35 AM,51.8,44.6,76,30.03,10.0,Variable,4.6,-,N/A,,Clear,0,2012-10-16 14:35:00
10:55 AM,51.8,42.8,71,30.03,10.0,SSE,4.6,-,N/A,,Clear,160,2012-10-16 14:55:00
11:15 AM,55.4,44.6,67,30.02,10.0,South,4.6,-,N/A,,Clear,180,2012-10-16 15:15:00
11:35 AM,55.4,42.8,63,30.02,10.0,Variable,4.6,-,N/A,,Clear,0,2012-10-16 15:35:00
11:55 AM,57.2,42.8,59,30.02,10.0,SW,6.9,-,N/A,,Clear,220,2012-10-16 15:55:00
12:15 PM,57.2,41.0,55,30.02,10.0,WSW,5.8,-,N/A,,Clear,250,2012-10-16 16:15:00
12:35 PM,57.2,39.2,51,30.01,10.0,Variable,5.8,-,N/A,,Clear,0,2012-10-16 16:35:00
12:55 PM,59.0,41.0,51,30.01,10.0,Variable,4.6,-,N/A,,Clear,0,2012-10-16 16:55:00
1:15 PM,60.8,41.0,48,30.00,10.0,NW,9.2,-,N/A,,Clear,310,2012-10-16 17:15:00
1:35 PM,60.8,41.0,48,29.99,10.0,West,9.2,-,N/A,,Clear,260,2012-10-16 17:35:00
1:55 PM,60.8,39.2,45,29.98,10.0,WSW,5.8,-,N/A,,Clear,250,2012-10-16 17:55:00
2:15 PM,60.8,41.0,48,29.97,10.0,WNW,8.1,-,N/A,,Clear,290,2012-10-16 18:15:00
2:35 PM,60.8,39.2,45,29.96,10.0,Variable,4.6,-,N/A,,Clear,0,2012-10-16 18:35:00
2:55 PM,62.6,39.2,42,29.96,10.0,SW,9.2,-,N/A,,Clear,230,2012-10-16 18:55:00
3:15 PM,62.6,39.2,42,29.95,10.0,NNW,6.9,-,N/A,,Clear,330,2012-10-16 19:15:00
3:35 PM,60.8,37.4,42,29.94,10.0,Calm,Calm,-,N/A,,Clear,0,2012-10-16 19:35:00
3:55 PM,62.6,39.2,42,29.93,10.0,WNW,3.5,-,N/A,,Clear,300,2012-10-16 19:55:00
4:15 PM,62.6,39.2,42,29.93,10.0,West,4.6,-,N/A,,Light Drizzle,280,2012-10-16 20:15:00
4:35 PM,62.6,39.2,42,29.93,10.0,Variable,5.8,-,N/A,,Clear,0,2012-10-16 20:35:00
4:55 PM,62.6,37.4,39,29.93,10.0,NW,6.9,-,N/A,,Clear,320,2012-10-16 20:55:00
5:15 PM,62.6,39.2,42,29.92,10.0,West,3.5,-,N/A,,Clear,270,2012-10-16 21:15:00
5:35 PM,62.6,37.4,39,29.92,10.0,Calm,Calm,-,N/A,,Clear,0,2012-10-16 21:35:00
5:55 PM,57.2,42.8,59,29.93,10.0,WNW,3.5,-,N/A,,Clear,300,2012-10-16 21:55:00
6:15 PM,53.6,46.4,77,29.93,10.0,Calm,Calm,-,N/A,,Clear,0,2012-10-16 22:15:00
6:35 PM,53.6,44.6,72,29.92,10.0,Calm,Calm,-,N/A,,Clear,0,2012-10-16 22:35:00
6:55 PM,50.0,44.6,82,29.92,10.0,Calm,Calm,-,N/A,,Clear,0,2012-10-16 22:55:00
7:15 PM,48.2,42.8,82,29.92,10.0,Calm,Calm,-,N/A,,Clear,0,2012-10-16 23:15:00
7:35 PM,46.4,42.8,87,29.92,10.0,Calm,Calm,-,N/A,,Clear,0,2012-10-16 23:35:00
7:55 PM,46.4,42.8,87,29.93,10.0,Calm,Calm,-,N/A,,Clear,0,2012-10-16 23:55:00
8:15 PM,46.4,42.8,87,29.93,10.0,Calm,Calm,-,N/A,,Clear,0,2012-10-17 00:15:00
8:35 PM,46.4,42.8,87,29.93,10.0,Calm,Calm,-,N/A,,Clear,0,2012-10-17 00:35:00
8:55 PM,44.6,42.8,93,29.93,10.0,Calm,Calm,-,N/A,,Clear,0,2012-10-17 00:55:00
9:15 PM,44.6,42.8,93,29.93,10.0,Calm,Calm,-,N/A,,Clear,0,2012-10-17 01:15:00
9:35 PM,44.6,42.8,93,29.93,10.0,Calm,Calm,-,N/A,,Clear,0,2012-10-17 01:35:00
9:55 PM,46.4,41.0,81,29.94,10.0,Calm,Calm,-,N/A,,Clear,0,2012-10-17 01:55:00
10:15 PM,46.4,41.0,81,29.94,10.0,Calm,Calm,-,N/A,,Clear,0,2012-10-17 02:15:00
10:35 PM,46.4,41.0,81,29.94,10.0,NE,4.6,-,N/A,,Clear,50,2012-10-17 02:35:00
10:55 PM,44.6,41.0,87,29.94,10.0,Calm,Calm,-,N/A,,Clear,0,2012-10-17 02:55:00
11:35 PM,44.6,39.2,81,29.94,10.0,Calm,Calm,-,N/A,,Clear,0,2012-10-17 03:35:00
11:55 PM,44.6,39.2,81,29.94,10.0,Calm,Calm,-,N/A,,Clear,0,2012-10-17 03:55:00